sensor_id;sensor_type;location;lat;lon;timestamp;temperature;humidity
16327;DHT22;34812;49.846;9.610;2022-09-16T00:00:53;13.60;99.90
16327;DHT22;34812;49.846;9.610;2022-09-16T00:01:55;13.60;99.90
16327;DHT22;34812;49.846;9.610;2022-09-16T00:02:56;13.70;99.90
16327;DHT22;34812;49.846;9.610;2022-09-16T00:03:58;13.70;99.90
16327;DHT22;34812;49.846;9.610;2022-09-16T00:04:59;13.70;99.90
16327;DHT22;34812;49.846;9.610;2022-09-16T00:06:00;13.70;99.90
16327;DHT22;34812;49.846;9.610;2022-09-16T00:07:01;13.70;99.90
16327;DHT22;34812;49.846;9.610;2022-09-16T00:08:03;13.70;99.90
16327;DHT22;34812;49.846;9.610;2022-09-16T00:09:04;13.70;99.90
16327;DHT22;34812;49.846;9.610;2022-09-16T00:10:07;13.70;99.90
16327;DHT22;34812;49.846;9.610;2022-09-16T00:11:07;13.60;99.90
16327;DHT22;34812;49.846;9.610;2022-09-16T00:12:09;13.60;99.90
16327;DHT22;34812;49.846;9.610;2022-09-16T00:13:10;13.60;99.90
16327;DHT22;34812;49.846;9.610;2022-09-16T00:14:12;13.60;99.90
16327;DHT22;34812;49.846;9.610;2022-09-16T00:15:15;13.60;99.90
16327;DHT22;34812;49.846;9.610;2022-09-16T00:16:19;13.70;99.90
16327;DHT22;34812;49.846;9.610;2022-09-16T00:17:21;13.70;99.90
16327;DHT22;34812;49.846;9.610;2022-09-16T00:18:23;13.70;99.90
16327;DHT22;34812;49.846;9.610;2022-09-16T00:19:24;13.70;99.90
16327;DHT22;34812;49.846;9.610;2022-09-16T00:20:26;13.70;99.90
16327;DHT22;34812;49.846;9.610;2022-09-16T00:21:28;13.70;99.90
16327;DHT22;34812;49.846;9.610;2022-09-16T00:22:30;13.70;99.90
16327;DHT22;34812;49.846;9.610;2022-09-16T00:23:30;13.70;99.90
16327;DHT22;34812;49.846;9.610;2022-09-16T00:24:32;13.70;99.90
16327;DHT22;34812;49.846;9.610;2022-09-16T00:25:33;13.70;99.90
16327;DHT22;34812;49.846;9.610;2022-09-16T00:26:34;13.70;99.90
16327;DHT22;34812;49.846;9.610;2022-09-16T00:27:36;13.70;99.90
16327;DHT22;34812;49.846;9.610;2022-09-16T00:28:38;13.70;99.90
16327;DHT22;34812;49.846;9.610;2022-09-16T00:29:39;13.60;99.90
16327;DHT22;34812;49.846;9.610;2022-09-16T00:30:42;13.60;99.90
16327;DHT22;34812;49.846;9.610;2022-09-16T00:31:43;13.60;99.90
16327;DHT22;34812;49.846;9.610;2022-09-16T00:32:45;13.60;99.90
16327;DHT22;34812;49.846;9.610;2022-09-16T00:33:45;13.50;99.90
16327;DHT22;34812;49.846;9.610;2022-09-16T00:34:47;13.50;99.90
16327;DHT22;34812;49.846;9.610;2022-09-16T00:35:48;13.50;99.90
16327;DHT22;34812;49.846;9.610;2022-09-16T00:36:50;13.50;99.90
16327;DHT22;34812;49.846;9.610;2022-09-16T00:37:50;13.40;99.90
16327;DHT22;34812;49.846;9.610;2022-09-16T00:38:53;13.40;99.90
16327;DHT22;34812;49.846;9.610;2022-09-16T00:39:54;13.40;99.90
16327;DHT22;34812;49.846;9.610;2022-09-16T00:40:56;13.40;99.90
16327;DHT22;34812;49.846;9.610;2022-09-16T00:41:57;13.40;99.90
16327;DHT22;34812;49.846;9.610;2022-09-16T00:42:58;13.40;99.90
16327;DHT22;34812;49.846;9.610;2022-09-16T00:44:01;13.40;99.90
16327;DHT22;34812;49.846;9.610;2022-09-16T00:45:05;13.40;99.90
16327;DHT22;34812;49.846;9.610;2022-09-16T00:46:08;13.50;99.90
16327;DHT22;34812;49.846;9.610;2022-09-16T00:47:10;13.50;99.90
16327;DHT22;34812;49.846;9.610;2022-09-16T00:48:15;13.50;99.90
16327;DHT22;34812;49.846;9.610;2022-09-16T00:49:23;13.60;99.90
16327;DHT22;34812;49.846;9.610;2022-09-16T00:50:29;13.60;99.90
16327;DHT22;34812;49.846;9.610;2022-09-16T00:51:36;13.60;99.90
16327;DHT22;34812;49.846;9.610;2022-09-16T00:52:38;13.70;99.90
16327;DHT22;34812;49.846;9.610;2022-09-16T00:53:44;13.70;99.90
16327;DHT22;34812;49.846;9.610;2022-09-16T00:54:48;13.80;99.90
16327;DHT22;34812;49.846;9.610;2022-09-16T00:55:51;13.80;99.90
16327;DHT22;34812;49.846;9.610;2022-09-16T00:56:54;13.80;99.90
16327;DHT22;34812;49.846;9.610;2022-09-16T00:58:00;13.80;99.90
16327;DHT22;34812;49.846;9.610;2022-09-16T00:59:05;13.80;99.90
16327;DHT22;34812;49.846;9.610;2022-09-16T01:00:08;13.80;99.90
16327;DHT22;34812;49.846;9.610;2022-09-16T01:01:12;13.80;99.90
16327;DHT22;34812;49.846;9.610;2022-09-16T01:02:16;13.80;99.90
16327;DHT22;34812;49.846;9.610;2022-09-16T01:03:19;13.70;99.90
16327;DHT22;34812;49.846;9.610;2022-09-16T01:04:24;13.80;99.90
16327;DHT22;34812;49.846;9.610;2022-09-16T01:05:26;13.80;99.90
16327;DHT22;34812;49.846;9.610;2022-09-16T01:06:29;13.80;99.90
16327;DHT22;34812;49.846;9.610;2022-09-16T01:07:34;13.80;99.90
16327;DHT22;34812;49.846;9.610;2022-09-16T01:08:37;13.80;99.90
16327;DHT22;34812;49.846;9.610;2022-09-16T01:09:38;13.80;99.90
16327;DHT22;34812;49.846;9.610;2022-09-16T01:10:41;13.80;99.90
16327;DHT22;34812;49.846;9.610;2022-09-16T01:11:42;13.80;99.90
16327;DHT22;34812;49.846;9.610;2022-09-16T01:12:47;13.70;99.90
16327;DHT22;34812;49.846;9.610;2022-09-16T01:13:48;13.70;99.90
16327;DHT22;34812;49.846;9.610;2022-09-16T01:14:51;13.80;99.90
16327;DHT22;34812;49.846;9.610;2022-09-16T01:15:59;13.80;99.90
16327;DHT22;34812;49.846;9.610;2022-09-16T01:17:09;13.80;99.90
16327;DHT22;34812;49.846;9.610;2022-09-16T01:18:20;13.80;99.90
16327;DHT22;34812;49.846;9.610;2022-09-16T01:19:37;13.80;99.90
16327;DHT22;34812;49.846;9.610;2022-09-16T01:21:08;13.80;99.90
16327;DHT22;34812;49.846;9.610;2022-09-16T01:22:24;13.80;99.90
16327;DHT22;34812;49.846;9.610;2022-09-16T01:24:02;13.80;99.90
16327;DHT22;34812;49.846;9.610;2022-09-16T01:25:17;13.80;99.90
16327;DHT22;34812;49.846;9.610;2022-09-16T01:26:40;13.80;99.90
16327;DHT22;34812;49.846;9.610;2022-09-16T01:28:17;13.80;99.90
16327;DHT22;34812;49.846;9.610;2022-09-16T01:29:38;13.80;99.90
16327;DHT22;34812;49.846;9.610;2022-09-16T01:30:53;13.80;99.90
16327;DHT22;34812;49.846;9.610;2022-09-16T01:32:03;13.80;99.90
16327;DHT22;34812;49.846;9.610;2022-09-16T01:33:07;13.80;99.90
16327;DHT22;34812;49.846;9.610;2022-09-16T01:34:20;13.70;99.90
16327;DHT22;34812;49.846;9.610;2022-09-16T01:35:32;13.80;99.90
16327;DHT22;34812;49.846;9.610;2022-09-16T01:36:47;13.80;99.90
16327;DHT22;34812;49.846;9.610;2022-09-16T01:37:59;13.80;99.90
16327;DHT22;34812;49.846;9.610;2022-09-16T01:39:17;13.80;99.90
16327;DHT22;34812;49.846;9.610;2022-09-16T01:40:27;13.70;99.90
16327;DHT22;34812;49.846;9.610;2022-09-16T01:41:34;13.70;99.90
16327;DHT22;34812;49.846;9.610;2022-09-16T01:42:45;13.70;99.90
16327;DHT22;34812;49.846;9.610;2022-09-16T01:43:55;13.70;99.90
16327;DHT22;34812;49.846;9.610;2022-09-16T01:45:04;13.70;99.90
16327;DHT22;34812;49.846;9.610;2022-09-16T01:46:15;13.70;99.90
16327;DHT22;34812;49.846;9.610;2022-09-16T01:47:22;13.70;99.90
16327;DHT22;34812;49.846;9.610;2022-09-16T01:48:34;13.80;99.90
16327;DHT22;34812;49.846;9.610;2022-09-16T01:49:42;13.70;99.90
16327;DHT22;34812;49.846;9.610;2022-09-16T01:50:48;13.80;99.90
16327;DHT22;34812;49.846;9.610;2022-09-16T01:51:57;13.70;99.90
16327;DHT22;34812;49.846;9.610;2022-09-16T01:53:03;13.70;99.90
16327;DHT22;34812;49.846;9.610;2022-09-16T01:54:11;13.80;99.90
16327;DHT22;34812;49.846;9.610;2022-09-16T01:55:17;13.70;99.90
16327;DHT22;34812;49.846;9.610;2022-09-16T01:56:25;13.70;99.90
16327;DHT22;34812;49.846;9.610;2022-09-16T01:57:35;13.70;99.90
16327;DHT22;34812;49.846;9.610;2022-09-16T01:58:40;13.70;99.90
16327;DHT22;34812;49.846;9.610;2022-09-16T01:59:47;13.70;99.90
16327;DHT22;34812;49.846;9.610;2022-09-16T02:00:54;13.70;99.90
16327;DHT22;34812;49.846;9.610;2022-09-16T02:02:01;13.70;99.90
16327;DHT22;34812;49.846;9.610;2022-09-16T02:03:07;13.70;99.90
16327;DHT22;34812;49.846;9.610;2022-09-16T02:04:12;13.70;99.90
16327;DHT22;34812;49.846;9.610;2022-09-16T02:05:18;13.70;99.90
16327;DHT22;34812;49.846;9.610;2022-09-16T02:06:22;13.70;99.90
16327;DHT22;34812;49.846;9.610;2022-09-16T02:07:29;13.70;99.90
16327;DHT22;34812;49.846;9.610;2022-09-16T02:08:36;13.70;99.90
16327;DHT22;34812;49.846;9.610;2022-09-16T02:09:42;13.60;99.90
16327;DHT22;34812;49.846;9.610;2022-09-16T02:10:48;13.70;99.90
16327;DHT22;34812;49.846;9.610;2022-09-16T02:11:53;13.70;99.90
16327;DHT22;34812;49.846;9.610;2022-09-16T02:13:07;13.60;99.90
16327;DHT22;34812;49.846;9.610;2022-09-16T02:14:14;13.60;99.90
16327;DHT22;34812;49.846;9.610;2022-09-16T02:15:19;13.60;99.90
16327;DHT22;34812;49.846;9.610;2022-09-16T02:16:34;13.60;99.90
16327;DHT22;34812;49.846;9.610;2022-09-16T02:17:39;13.60;99.90
16327;DHT22;34812;49.846;9.610;2022-09-16T02:18:43;13.60;99.90
16327;DHT22;34812;49.846;9.610;2022-09-16T02:19:50;13.60;99.90
16327;DHT22;34812;49.846;9.610;2022-09-16T02:20:55;13.60;99.90
16327;DHT22;34812;49.846;9.610;2022-09-16T02:21:59;13.60;99.90
16327;DHT22;34812;49.846;9.610;2022-09-16T02:23:04;13.60;99.90
16327;DHT22;34812;49.846;9.610;2022-09-16T02:24:10;13.60;99.90
16327;DHT22;34812;49.846;9.610;2022-09-16T02:25:13;13.60;99.90
16327;DHT22;34812;49.846;9.610;2022-09-16T02:26:20;13.60;99.90
16327;DHT22;34812;49.846;9.610;2022-09-16T02:27:22;13.50;99.90
16327;DHT22;34812;49.846;9.610;2022-09-16T02:28:25;13.50;99.90
16327;DHT22;34812;49.846;9.610;2022-09-16T02:29:33;13.50;99.90
16327;DHT22;34812;49.846;9.610;2022-09-16T02:30:39;13.50;99.90
16327;DHT22;34812;49.846;9.610;2022-09-16T02:31:43;13.50;99.90
16327;DHT22;34812;49.846;9.610;2022-09-16T02:32:50;13.50;99.90
16327;DHT22;34812;49.846;9.610;2022-09-16T02:33:56;13.50;99.90
16327;DHT22;34812;49.846;9.610;2022-09-16T02:35:00;13.50;99.90
16327;DHT22;34812;49.846;9.610;2022-09-16T02:36:03;13.50;99.90
16327;DHT22;34812;49.846;9.610;2022-09-16T02:37:09;13.50;99.90
16327;DHT22;34812;49.846;9.610;2022-09-16T02:38:14;13.50;99.90
16327;DHT22;34812;49.846;9.610;2022-09-16T02:39:19;13.50;99.90
16327;DHT22;34812;49.846;9.610;2022-09-16T02:40:25;13.50;99.90
16327;DHT22;34812;49.846;9.610;2022-09-16T02:41:28;13.50;99.90
16327;DHT22;34812;49.846;9.610;2022-09-16T02:42:29;13.50;99.90
16327;DHT22;34812;49.846;9.610;2022-09-16T02:43:31;13.50;99.90
16327;DHT22;34812;49.846;9.610;2022-09-16T02:44:32;13.50;99.90
16327;DHT22;34812;49.846;9.610;2022-09-16T02:45:42;13.50;99.90
16327;DHT22;34812;49.846;9.610;2022-09-16T02:46:50;13.50;99.90
16327;DHT22;34812;49.846;9.610;2022-09-16T02:48:00;13.50;99.90
16327;DHT22;34812;49.846;9.610;2022-09-16T02:49:07;13.50;99.90
16327;DHT22;34812;49.846;9.610;2022-09-16T02:50:14;13.50;99.90
16327;DHT22;34812;49.846;9.610;2022-09-16T02:51:25;13.50;99.90
16327;DHT22;34812;49.846;9.610;2022-09-16T02:52:36;13.50;99.90
16327;DHT22;34812;49.846;9.610;2022-09-16T02:53:42;13.50;99.90
16327;DHT22;34812;49.846;9.610;2022-09-16T02:54:50;13.50;99.90
16327;DHT22;34812;49.846;9.610;2022-09-16T02:55:54;13.50;99.90
16327;DHT22;34812;49.846;9.610;2022-09-16T02:56:58;13.50;99.90
16327;DHT22;34812;49.846;9.610;2022-09-16T02:58:00;13.50;99.90
16327;DHT22;34812;49.846;9.610;2022-09-16T02:59:02;13.50;99.90
16327;DHT22;34812;49.846;9.610;2022-09-16T03:00:07;13.50;99.90
16327;DHT22;34812;49.846;9.610;2022-09-16T03:01:10;13.50;99.90
16327;DHT22;34812;49.846;9.610;2022-09-16T03:02:13;13.50;99.90
16327;DHT22;34812;49.846;9.610;2022-09-16T03:03:15;13.50;99.90
16327;DHT22;34812;49.846;9.610;2022-09-16T03:04:18;13.50;99.90
16327;DHT22;34812;49.846;9.610;2022-09-16T03:05:19;13.50;99.90
16327;DHT22;34812;49.846;9.610;2022-09-16T03:06:22;13.50;99.90
16327;DHT22;34812;49.846;9.610;2022-09-16T03:07:24;13.50;99.90
16327;DHT22;34812;49.846;9.610;2022-09-16T03:08:26;13.50;99.90
16327;DHT22;34812;49.846;9.610;2022-09-16T03:09:27;13.40;99.90
16327;DHT22;34812;49.846;9.610;2022-09-16T03:10:38;13.40;99.90
16327;DHT22;34812;49.846;9.610;2022-09-16T03:11:49;13.40;99.90
16327;DHT22;34812;49.846;9.610;2022-09-16T03:13:00;13.40;99.90
16327;DHT22;34812;49.846;9.610;2022-09-16T03:14:13;13.40;99.90
16327;DHT22;34812;49.846;9.610;2022-09-16T03:15:30;13.40;99.90
16327;DHT22;34812;49.846;9.610;2022-09-16T03:16:37;13.40;99.90
16327;DHT22;34812;49.846;9.610;2022-09-16T03:18:07;13.40;99.90
16327;DHT22;34812;49.846;9.610;2022-09-16T03:19:15;13.40;99.90
16327;DHT22;34812;49.846;9.610;2022-09-16T03:20:24;13.40;99.90
16327;DHT22;34812;49.846;9.610;2022-09-16T03:21:30;13.40;99.90
16327;DHT22;34812;49.846;9.610;2022-09-16T03:22:42;13.40;99.90
16327;DHT22;34812;49.846;9.610;2022-09-16T03:23:50;13.30;99.90
16327;DHT22;34812;49.846;9.610;2022-09-16T03:25:00;13.30;99.90
16327;DHT22;34812;49.846;9.610;2022-09-16T03:26:09;13.30;99.90
16327;DHT22;34812;49.846;9.610;2022-09-16T03:27:17;13.30;99.90
16327;DHT22;34812;49.846;9.610;2022-09-16T03:28:19;13.30;99.90
16327;DHT22;34812;49.846;9.610;2022-09-16T03:29:26;13.30;99.90
16327;DHT22;34812;49.846;9.610;2022-09-16T03:30:31;13.30;99.90
16327;DHT22;34812;49.846;9.610;2022-09-16T03:31:38;13.40;99.90
16327;DHT22;34812;49.846;9.610;2022-09-16T03:32:44;13.30;99.90
16327;DHT22;34812;49.846;9.610;2022-09-16T03:33:50;13.30;99.90
16327;DHT22;34812;49.846;9.610;2022-09-16T03:34:58;13.30;99.90
16327;DHT22;34812;49.846;9.610;2022-09-16T03:36:02;13.30;99.90
16327;DHT22;34812;49.846;9.610;2022-09-16T03:37:06;13.30;99.90
16327;DHT22;34812;49.846;9.610;2022-09-16T03:38:11;13.30;99.90
16327;DHT22;34812;49.846;9.610;2022-09-16T03:39:13;13.30;99.90
16327;DHT22;34812;49.846;9.610;2022-09-16T03:40:17;13.20;99.90
16327;DHT22;34812;49.846;9.610;2022-09-16T03:41:18;13.20;99.90
16327;DHT22;34812;49.846;9.610;2022-09-16T03:42:20;13.20;99.90
16327;DHT22;34812;49.846;9.610;2022-09-16T03:43:21;13.20;99.90
16327;DHT22;34812;49.846;9.610;2022-09-16T03:44:30;13.20;99.90
16327;DHT22;34812;49.846;9.610;2022-09-16T03:45:31;13.20;99.90
16327;DHT22;34812;49.846;9.610;2022-09-16T03:46:33;13.20;99.90
16327;DHT22;34812;49.846;9.610;2022-09-16T03:47:34;13.20;99.90
16327;DHT22;34812;49.846;9.610;2022-09-16T03:48:36;13.20;99.90
16327;DHT22;34812;49.846;9.610;2022-09-16T03:49:37;13.10;99.90
16327;DHT22;34812;49.846;9.610;2022-09-16T03:50:40;13.10;99.90
16327;DHT22;34812;49.846;9.610;2022-09-16T03:51:41;13.20;99.90
16327;DHT22;34812;49.846;9.610;2022-09-16T03:52:43;13.10;99.90
16327;DHT22;34812;49.846;9.610;2022-09-16T03:53:43;13.10;99.90
16327;DHT22;34812;49.846;9.610;2022-09-16T03:54:45;13.20;99.90
16327;DHT22;34812;49.846;9.610;2022-09-16T03:55:47;13.20;99.90
16327;DHT22;34812;49.846;9.610;2022-09-16T03:56:49;13.20;99.90
16327;DHT22;34812;49.846;9.610;2022-09-16T03:57:51;13.20;99.90
16327;DHT22;34812;49.846;9.610;2022-09-16T03:58:53;13.20;99.90
16327;DHT22;34812;49.846;9.610;2022-09-16T03:59:54;13.20;99.90
16327;DHT22;34812;49.846;9.610;2022-09-16T04:00:55;13.20;99.90
16327;DHT22;34812;49.846;9.610;2022-09-16T04:01:56;13.20;99.90
16327;DHT22;34812;49.846;9.610;2022-09-16T04:02:59;13.10;99.90
16327;DHT22;34812;49.846;9.610;2022-09-16T04:04:00;13.10;99.90
16327;DHT22;34812;49.846;9.610;2022-09-16T04:05:02;13.10;99.90
16327;DHT22;34812;49.846;9.610;2022-09-16T04:06:05;13.10;99.90
16327;DHT22;34812;49.846;9.610;2022-09-16T04:07:07;13.10;99.90
16327;DHT22;34812;49.846;9.610;2022-09-16T04:08:07;13.10;99.90
16327;DHT22;34812;49.846;9.610;2022-09-16T04:09:10;13.00;99.90
16327;DHT22;34812;49.846;9.610;2022-09-16T04:10:11;13.00;99.90
16327;DHT22;34812;49.846;9.610;2022-09-16T04:11:13;13.00;99.90
16327;DHT22;34812;49.846;9.610;2022-09-16T04:12:14;13.00;99.90
16327;DHT22;34812;49.846;9.610;2022-09-16T04:13:15;13.00;99.90
16327;DHT22;34812;49.846;9.610;2022-09-16T04:14:16;13.00;99.90
16327;DHT22;34812;49.846;9.610;2022-09-16T04:15:18;13.00;99.90
16327;DHT22;34812;49.846;9.610;2022-09-16T04:16:20;12.90;99.90
16327;DHT22;34812;49.846;9.610;2022-09-16T04:17:22;12.90;99.90
16327;DHT22;34812;49.846;9.610;2022-09-16T04:18:23;12.90;99.90
16327;DHT22;34812;49.846;9.610;2022-09-16T04:19:25;12.90;99.90
16327;DHT22;34812;49.846;9.610;2022-09-16T04:20:25;12.90;99.90
16327;DHT22;34812;49.846;9.610;2022-09-16T04:21:28;12.80;99.90
16327;DHT22;34812;49.846;9.610;2022-09-16T04:22:30;12.80;99.90
16327;DHT22;34812;49.846;9.610;2022-09-16T04:23:31;12.80;99.90
16327;DHT22;34812;49.846;9.610;2022-09-16T04:24:32;12.80;99.90
16327;DHT22;34812;49.846;9.610;2022-09-16T04:25:34;12.80;99.90
16327;DHT22;34812;49.846;9.610;2022-09-16T04:26:35;12.80;99.90
16327;DHT22;34812;49.846;9.610;2022-09-16T04:27:36;12.80;99.90
16327;DHT22;34812;49.846;9.610;2022-09-16T04:28:37;12.90;99.90
16327;DHT22;34812;49.846;9.610;2022-09-16T04:29:39;12.90;99.90
16327;DHT22;34812;49.846;9.610;2022-09-16T04:30:40;12.90;99.90
16327;DHT22;34812;49.846;9.610;2022-09-16T04:31:41;12.90;99.90
16327;DHT22;34812;49.846;9.610;2022-09-16T04:32:42;12.90;99.90
16327;DHT22;34812;49.846;9.610;2022-09-16T04:33:44;12.90;99.90
16327;DHT22;34812;49.846;9.610;2022-09-16T04:34:45;12.90;99.90
16327;DHT22;34812;49.846;9.610;2022-09-16T04:35:46;12.80;99.90
16327;DHT22;34812;49.846;9.610;2022-09-16T04:36:48;12.80;99.90
16327;DHT22;34812;49.846;9.610;2022-09-16T04:37:51;12.90;99.90
16327;DHT22;34812;49.846;9.610;2022-09-16T04:38:52;12.90;99.90
16327;DHT22;34812;49.846;9.610;2022-09-16T04:39:53;12.90;99.90
16327;DHT22;34812;49.846;9.610;2022-09-16T04:40:59;12.90;99.90
16327;DHT22;34812;49.846;9.610;2022-09-16T04:42:01;12.90;99.90
16327;DHT22;34812;49.846;9.610;2022-09-16T04:43:02;12.90;99.90
16327;DHT22;34812;49.846;9.610;2022-09-16T04:44:04;12.90;99.90
16327;DHT22;34812;49.846;9.610;2022-09-16T04:45:06;12.90;99.90
16327;DHT22;34812;49.846;9.610;2022-09-16T04:46:08;12.90;99.90
16327;DHT22;34812;49.846;9.610;2022-09-16T04:47:09;12.90;99.90
16327;DHT22;34812;49.846;9.610;2022-09-16T04:48:10;12.90;99.90
16327;DHT22;34812;49.846;9.610;2022-09-16T04:49:11;12.90;99.90
16327;DHT22;34812;49.846;9.610;2022-09-16T04:50:13;12.90;99.90
16327;DHT22;34812;49.846;9.610;2022-09-16T04:51:14;12.90;99.90
16327;DHT22;34812;49.846;9.610;2022-09-16T04:52:17;12.90;99.90
16327;DHT22;34812;49.846;9.610;2022-09-16T04:53:18;12.90;99.90
16327;DHT22;34812;49.846;9.610;2022-09-16T04:54:20;12.90;99.90
16327;DHT22;34812;49.846;9.610;2022-09-16T04:55:21;12.90;99.90
16327;DHT22;34812;49.846;9.610;2022-09-16T04:56:25;12.90;99.90
16327;DHT22;34812;49.846;9.610;2022-09-16T04:57:29;12.90;99.90
16327;DHT22;34812;49.846;9.610;2022-09-16T04:58:31;12.90;99.90
16327;DHT22;34812;49.846;9.610;2022-09-16T04:59:32;12.90;99.90
16327;DHT22;34812;49.846;9.610;2022-09-16T05:00:34;12.80;99.90
16327;DHT22;34812;49.846;9.610;2022-09-16T05:01:36;12.80;99.90
16327;DHT22;34812;49.846;9.610;2022-09-16T05:02:39;12.80;99.90
16327;DHT22;34812;49.846;9.610;2022-09-16T05:03:41;12.80;99.90
16327;DHT22;34812;49.846;9.610;2022-09-16T05:04:43;12.80;99.90
16327;DHT22;34812;49.846;9.610;2022-09-16T05:05:44;12.80;99.90
16327;DHT22;34812;49.846;9.610;2022-09-16T05:06:45;12.80;99.90
16327;DHT22;34812;49.846;9.610;2022-09-16T05:07:48;12.80;99.90
16327;DHT22;34812;49.846;9.610;2022-09-16T05:08:50;12.80;99.90
16327;DHT22;34812;49.846;9.610;2022-09-16T05:09:51;12.80;99.90
16327;DHT22;34812;49.846;9.610;2022-09-16T05:10:52;12.80;99.90
16327;DHT22;34812;49.846;9.610;2022-09-16T05:11:54;12.80;99.90
16327;DHT22;34812;49.846;9.610;2022-09-16T05:12:55;12.80;99.90
16327;DHT22;34812;49.846;9.610;2022-09-16T05:13:57;12.80;99.90
16327;DHT22;34812;49.846;9.610;2022-09-16T05:14:59;12.80;99.90
16327;DHT22;34812;49.846;9.610;2022-09-16T05:16:01;12.80;99.90
16327;DHT22;34812;49.846;9.610;2022-09-16T05:17:03;12.80;99.90
16327;DHT22;34812;49.846;9.610;2022-09-16T05:18:04;12.80;99.90
16327;DHT22;34812;49.846;9.610;2022-09-16T05:19:06;12.80;99.90
16327;DHT22;34812;49.846;9.610;2022-09-16T05:20:07;12.80;99.90
16327;DHT22;34812;49.846;9.610;2022-09-16T05:21:12;12.80;99.90
16327;DHT22;34812;49.846;9.610;2022-09-16T05:22:12;12.80;99.90
16327;DHT22;34812;49.846;9.610;2022-09-16T05:23:15;12.80;99.90
16327;DHT22;34812;49.846;9.610;2022-09-16T05:24:16;12.80;99.90
16327;DHT22;34812;49.846;9.610;2022-09-16T05:25:18;12.80;99.90
16327;DHT22;34812;49.846;9.610;2022-09-16T05:26:20;12.80;99.90
16327;DHT22;34812;49.846;9.610;2022-09-16T05:27:23;12.80;99.90
16327;DHT22;34812;49.846;9.610;2022-09-16T05:28:23;12.80;99.90
16327;DHT22;34812;49.846;9.610;2022-09-16T05:29:25;12.80;99.90
16327;DHT22;34812;49.846;9.610;2022-09-16T05:30:26;12.80;99.90
16327;DHT22;34812;49.846;9.610;2022-09-16T05:31:28;12.80;99.90
16327;DHT22;34812;49.846;9.610;2022-09-16T05:32:29;12.90;99.90
16327;DHT22;34812;49.846;9.610;2022-09-16T05:33:32;12.90;99.90
16327;DHT22;34812;49.846;9.610;2022-09-16T05:34:33;12.90;99.90
16327;DHT22;34812;49.846;9.610;2022-09-16T05:35:36;12.90;99.90
16327;DHT22;34812;49.846;9.610;2022-09-16T05:36:37;12.90;99.90
16327;DHT22;34812;49.846;9.610;2022-09-16T05:37:39;12.90;99.90
16327;DHT22;34812;49.846;9.610;2022-09-16T05:38:42;12.90;99.90
16327;DHT22;34812;49.846;9.610;2022-09-16T05:39:43;12.90;99.90
16327;DHT22;34812;49.846;9.610;2022-09-16T05:40:44;12.90;99.90
16327;DHT22;34812;49.846;9.610;2022-09-16T05:41:46;12.90;99.90
16327;DHT22;34812;49.846;9.610;2022-09-16T05:42:47;12.90;99.90
16327;DHT22;34812;49.846;9.610;2022-09-16T05:43:49;12.90;99.90
16327;DHT22;34812;49.846;9.610;2022-09-16T05:44:50;13.00;99.90
16327;DHT22;34812;49.846;9.610;2022-09-16T05:45:52;13.00;99.90
16327;DHT22;34812;49.846;9.610;2022-09-16T05:46:54;13.00;99.90
16327;DHT22;34812;49.846;9.610;2022-09-16T05:47:55;13.00;99.90
16327;DHT22;34812;49.846;9.610;2022-09-16T05:48:57;13.00;99.90
16327;DHT22;34812;49.846;9.610;2022-09-16T05:49:58;13.00;99.90
16327;DHT22;34812;49.846;9.610;2022-09-16T05:51:01;13.10;99.90
16327;DHT22;34812;49.846;9.610;2022-09-16T05:52:02;13.00;99.90
16327;DHT22;34812;49.846;9.610;2022-09-16T05:53:04;13.10;99.90
16327;DHT22;34812;49.846;9.610;2022-09-16T05:54:06;13.10;99.90
16327;DHT22;34812;49.846;9.610;2022-09-16T05:55:08;13.00;99.90
16327;DHT22;34812;49.846;9.610;2022-09-16T05:56:12;13.10;99.90
16327;DHT22;34812;49.846;9.610;2022-09-16T05:57:14;13.10;99.90
16327;DHT22;34812;49.846;9.610;2022-09-16T05:58:15;13.10;99.90
16327;DHT22;34812;49.846;9.610;2022-09-16T05:59:17;13.10;99.90
16327;DHT22;34812;49.846;9.610;2022-09-16T06:00:18;13.10;99.90
16327;DHT22;34812;49.846;9.610;2022-09-16T06:01:21;13.10;99.90
16327;DHT22;34812;49.846;9.610;2022-09-16T06:02:23;13.10;99.90
16327;DHT22;34812;49.846;9.610;2022-09-16T06:03:24;13.10;99.90
16327;DHT22;34812;49.846;9.610;2022-09-16T06:04:26;13.10;99.90
16327;DHT22;34812;49.846;9.610;2022-09-16T06:05:27;13.10;99.90
16327;DHT22;34812;49.846;9.610;2022-09-16T06:06:30;13.10;99.90
16327;DHT22;34812;49.846;9.610;2022-09-16T06:07:31;13.10;99.90
16327;DHT22;34812;49.846;9.610;2022-09-16T06:08:34;13.10;99.90
16327;DHT22;34812;49.846;9.610;2022-09-16T06:09:36;13.10;99.90
16327;DHT22;34812;49.846;9.610;2022-09-16T06:10:39;13.20;99.90
16327;DHT22;34812;49.846;9.610;2022-09-16T06:11:42;13.20;99.90
16327;DHT22;34812;49.846;9.610;2022-09-16T06:12:44;13.20;99.90
16327;DHT22;34812;49.846;9.610;2022-09-16T06:13:44;13.10;99.90
16327;DHT22;34812;49.846;9.610;2022-09-16T06:14:46;13.10;99.90
16327;DHT22;34812;49.846;9.610;2022-09-16T06:15:48;13.10;99.90
16327;DHT22;34812;49.846;9.610;2022-09-16T06:16:50;13.20;99.90
16327;DHT22;34812;49.846;9.610;2022-09-16T06:17:51;13.20;99.90
16327;DHT22;34812;49.846;9.610;2022-09-16T06:18:53;13.20;99.90
16327;DHT22;34812;49.846;9.610;2022-09-16T06:19:54;13.20;99.90
16327;DHT22;34812;49.846;9.610;2022-09-16T06:20:56;13.30;99.90
16327;DHT22;34812;49.846;9.610;2022-09-16T06:21:57;13.30;99.90
16327;DHT22;34812;49.846;9.610;2022-09-16T06:22:58;13.30;99.90
16327;DHT22;34812;49.846;9.610;2022-09-16T06:24:00;13.30;99.90
16327;DHT22;34812;49.846;9.610;2022-09-16T06:25:03;13.30;99.90
16327;DHT22;34812;49.846;9.610;2022-09-16T06:26:06;13.30;99.90
16327;DHT22;34812;49.846;9.610;2022-09-16T06:27:08;13.30;99.90
16327;DHT22;34812;49.846;9.610;2022-09-16T06:28:09;13.30;99.90
16327;DHT22;34812;49.846;9.610;2022-09-16T06:29:11;13.30;99.90
16327;DHT22;34812;49.846;9.610;2022-09-16T06:30:12;13.40;99.90
16327;DHT22;34812;49.846;9.610;2022-09-16T06:31:16;13.50;99.90
16327;DHT22;34812;49.846;9.610;2022-09-16T06:32:18;13.60;99.90
16327;DHT22;34812;49.846;9.610;2022-09-16T06:33:19;13.70;99.90
16327;DHT22;34812;49.846;9.610;2022-09-16T06:34:20;13.70;99.90
16327;DHT22;34812;49.846;9.610;2022-09-16T06:35:22;13.80;99.90
16327;DHT22;34812;49.846;9.610;2022-09-16T06:36:25;13.80;99.90
16327;DHT22;34812;49.846;9.610;2022-09-16T06:37:27;13.80;99.90
16327;DHT22;34812;49.846;9.610;2022-09-16T06:38:27;13.80;99.90
16327;DHT22;34812;49.846;9.610;2022-09-16T06:39:29;13.80;99.90
16327;DHT22;34812;49.846;9.610;2022-09-16T06:40:31;13.90;99.90
16327;DHT22;34812;49.846;9.610;2022-09-16T06:41:33;13.90;99.90
16327;DHT22;34812;49.846;9.610;2022-09-16T06:42:35;13.90;99.90
16327;DHT22;34812;49.846;9.610;2022-09-16T06:43:37;13.90;99.90
16327;DHT22;34812;49.846;9.610;2022-09-16T06:44:38;13.90;99.90